Time;durP1;ratioP1;P1;durP2;ratioP2;P2;SDS_P1;SDS_P2;PMS_P1;PMS_P2;Temp;Humidity;BMP_temperature;BMP_pressure;BME280_temperature;BME280_humidity;BME280_pressure;Samples;Min_cycle;Max_cycle;Signal;HPM_P1;HPM_P2
2021/11/10 00:00:06;;;;;;;0.05;0.05;;;;;;;;;;348694;28;1039;-33
2021/11/10 00:00:26;;;;;;;0.10;0.10;;;;;;;;;;345422;28;136765;-33
2021/11/10 00:00:39;;;;;;;0.20;0.10;;;;;;;;;;347634;28;90537;-32
2021/11/10 00:00:51;;;;;;;0.15;0.10;;;;;;;;;;350302;28;45437;-34
2021/11/10 00:01:02;;;;;;;0.10;0.03;;;;;;;;;;349960;28;21170;-32
2021/11/10 00:01:13;;;;;;;0.17;0.10;;;;;;;;;;350820;28;20577;-36
2021/11/10 00:01:24;;;;;;;0.20;0.10;;;;;;;;;;350600;28;45433;-34
2021/11/10 00:01:36;;;;;;;0.20;0.10;;;;;;;;;;351421;28;21103;-32
2021/11/10 00:01:49;;;;;;;0.10;0.10;;;;;;;;;;351360;28;20934;-33
2021/11/10 00:02:01;;;;;;;0.00;0.00;;;;;;;;;;347356;28;90793;-33
2021/11/10 00:02:12;;;;;;;0.10;0.10;;;;;;;;;;349999;28;21494;-34
2021/11/10 00:02:23;;;;;;;0.03;0.03;;;;;;;;;;349300;28;1044;-38
2021/11/10 00:02:34;;;;;;;0.10;0.10;;;;;;;;;;348676;28;20974;-33
2021/11/10 00:02:45;;;;;;;0.40;0.10;;;;;;;;;;348633;28;21062;-35
2021/11/10 00:02:56;;;;;;;0.35;0.10;;;;;;;;;;348958;28;21465;-34
2021/11/10 00:03:09;;;;;;;0.45;0.05;;;;;;;;;;349183;28;45064;-37
2021/11/10 00:03:20;;;;;;;0.20;0.00;;;;;;;;;;348345;28;68270;-32
2021/11/10 00:03:31;;;;;;;0.00;0.00;;;;;;;;;;350055;28;20933;-35
2021/11/10 00:03:43;;;;;;;0.10;0.00;;;;;;;;;;349804;28;21095;-33
2021/11/10 00:03:54;;;;;;;0.08;0.05;;;;;;;;;;348513;28;21075;-34
2021/11/10 00:04:05;;;;;;;0.10;0.10;;;;;;;;;;348588;28;21565;-34
2021/11/10 00:04:17;;;;;;;0.10;0.10;;;;;;;;;;348932;28;21703;-32
2021/11/10 00:04:29;;;;;;;0.10;0.10;;;;;;;;;;348317;28;68247;-38
2021/11/10 00:04:40;;;;;;;0.20;0.10;;;;;;;;;;349892;28;21172;-35
2021/11/10 00:04:51;;;;;;;0.13;0.10;;;;;;;;;;349923;28;21485;-32
2021/11/10 00:05:03;;;;;;;0.20;0.10;;;;;;;;;;349970;28;21381;-32
2021/11/10 00:05:15;;;;;;;0.20;0.10;;;;;;;;;;349170;28;45379;-35
2021/11/10 00:05:26;;;;;;;0.28;0.10;;;;;;;;;;348962;28;45372;-35
2021/11/10 00:05:38;;;;;;;0.10;0.10;;;;;;;;;;350036;28;20861;-32
2021/11/10 00:05:49;;;;;;;0.30;0.10;;;;;;;;;;349137;28;45233;-34
2021/11/10 00:06:00;;;;;;;0.20;0.10;;;;;;;;;;350679;28;1136;-35
2021/11/10 00:06:11;;;;;;;0.15;0.10;;;;;;;;;;350008;28;21229;-36
2021/11/10 00:06:22;;;;;;;0.13;0.10;;;;;;;;;;350021;28;21448;-33
2021/11/10 00:06:33;;;;;;;0.20;0.20;;;;;;;;;;350791;28;20807;-34
2021/11/10 00:06:45;;;;;;;0.20;0.15;;;;;;;;;;352127;28;45422;-33
2021/11/10 00:06:56;;;;;;;0.13;0.10;;;;;;;;;;352820;28;20915;-35
2021/11/10 00:07:07;;;;;;;0.20;0.10;;;;;;;;;;351311;28;21124;-35
2021/11/10 00:07:18;;;;;;;0.17;0.10;;;;;;;;;;351415;28;20999;-35
2021/11/10 00:07:30;;;;;;;0.13;0.10;;;;;;;;;;351388;28;21077;-36
2021/11/10 00:07:41;;;;;;;0.03;0.03;;;;;;;;;;350522;28;45321;-37
2021/11/10 00:07:52;;;;;;;0.10;0.00;;;;;;;;;;352048;28;2073;-36
2021/11/10 00:08:04;;;;;;;0.10;0.00;;;;;;;;;;351335;28;21150;-32
2021/11/10 00:08:15;;;;;;;0.17;0.10;;;;;;;;;;350614;28;44707;-33
2021/11/10 00:08:26;;;;;;;0.20;0.10;;;;;;;;;;351429;28;20873;-32
2021/11/10 00:08:37;;;;;;;0.10;0.10;;;;;;;;;;352062;28;1594;-35
2021/11/10 00:08:48;;;;;;;0.05;0.05;;;;;;;;;;351135;28;21250;-35
2021/11/10 00:09:00;;;;;;;0.20;0.00;;;;;;;;;;349423;28;44255;-33
2021/11/10 00:09:11;;;;;;;0.20;0.08;;;;;;;;;;351491;28;21203;-34
2021/11/10 00:09:22;;;;;;;0.30;0.10;;;;;;;;;;351505;28;20961;-34
2021/11/10 00:09:33;;;;;;;0.50;0.13;;;;;;;;;;351289;28;21370;-38
2021/11/10 00:09:47;;;;;;;0.57;0.10;;;;;;;;;;349145;28;90126;-32
2021/11/10 00:09:58;;;;;;;0.50;0.10;;;;;;;;;;349973;28;21011;-36
2021/11/10 00:10:11;;;;;;;0.15;0.10;;;;;;;;;;349129;28;45318;-33
2021/11/10 00:10:23;;;;;;;0.28;0.10;;;;;;;;;;349228;28;44867;-33
2021/11/10 00:10:35;;;;;;;0.20;0.10;;;;;;;;;;350359;28;21503;-34
2021/11/10 00:10:46;;;;;;;0.10;0.10;;;;;;;;;;349747;28;68199;-34
2021/11/10 00:10:57;;;;;;;0.10;0.10;;;;;;;;;;352056;28;961;-34
2021/11/10 00:11:08;;;;;;;0.00;0.00;;;;;;;;;;351393;28;21090;-35
2021/11/10 00:11:19;;;;;;;0.20;0.05;;;;;;;;;;351361;28;20936;-34
2021/11/10 00:11:31;;;;;;;0.28;0.10;;;;;;;;;;351416;28;20866;-35
2021/11/10 00:11:42;;;;;;;0.40;0.10;;;;;;;;;;350594;28;44194;-32
2021/11/10 00:11:54;;;;;;;0.20;0.10;;;;;;;;;;351897;28;20820;-36
2021/11/10 00:12:05;;;;;;;0.20;0.10;;;;;;;;;;352098;28;45497;-36
2021/11/10 00:12:16;;;;;;;0.10;0.10;;;;;;;;;;349871;28;21268;-32
2021/11/10 00:12:27;;;;;;;0.10;0.10;;;;;;;;;;350018;28;20842;-34
2021/11/10 00:12:39;;;;;;;0.10;0.10;;;;;;;;;;350010;28;21189;-35
2021/11/10 00:12:50;;;;;;;0.10;0.10;;;;;;;;;;349255;28;45068;-33
2021/11/10 00:13:20;;;;;;;0.10;0.10;;;;;;;;;;349980;28;20830;-32
2021/11/10 00:13:31;;;;;;;0.10;0.10;;;;;;;;;;345966;28;136121;-35
2021/11/10 00:13:42;;;;;;;0.40;0.10;;;;;;;;;;350018;28;21109;-33
2021/11/10 00:13:53;;;;;;;0.35;0.15;;;;;;;;;;350025;28;20528;-39
2021/11/10 00:14:04;;;;;;;0.45;0.10;;;;;;;;;;350701;28;1110;-33
2021/11/10 00:14:15;;;;;;;0.22;0.10;;;;;;;;;;352154;28;21038;-33
2021/11/10 00:14:26;;;;;;;0.10;0.10;;;;;;;;;;351396;28;21542;-34
2021/11/10 00:14:37;;;;;;;0.40;0.10;;;;;;;;;;350810;28;21000;-34
2021/11/10 00:14:48;;;;;;;0.30;0.10;;;;;;;;;;351378;28;21039;-37
2021/11/10 00:15:00;;;;;;;0.32;0.10;;;;;;;;;;349987;28;21587;-36
2021/11/10 00:15:11;;;;;;;0.10;0.10;;;;;;;;;;349949;28;21565;-34
2021/11/10 00:15:22;;;;;;;0.10;0.10;;;;;;;;;;347806;28;44897;-33
2021/11/10 00:15:33;;;;;;;0.05;0.03;;;;;;;;;;348670;28;21238;-39
2021/11/10 00:15:46;;;;;;;0.03;0.00;;;;;;;;;;348426;28;21145;-35
2021/11/10 00:15:57;;;;;;;0.08;0.08;;;;;;;;;;347018;28;68329;-36
2021/11/10 00:16:08;;;;;;;0.10;0.10;;;;;;;;;;349358;28;1457;-34
2021/11/10 00:16:19;;;;;;;0.10;0.10;;;;;;;;;;348843;28;21552;-33
2021/11/10 00:16:31;;;;;;;0.10;0.10;;;;;;;;;;350073;28;21205;-35
2021/11/10 00:16:42;;;;;;;0.20;0.10;;;;;;;;;;349367;28;1048;-35
2021/11/10 00:16:55;;;;;;;0.20;0.10;;;;;;;;;;348775;28;21182;-35
2021/11/10 00:17:06;;;;;;;0.05;0.05;;;;;;;;;;348466;28;67624;-32
2021/11/10 00:17:17;;;;;;;0.17;0.10;;;;;;;;;;349838;28;45082;-39
2021/11/10 00:17:29;;;;;;;0.20;0.10;;;;;;;;;;350013;28;21005;-34
2021/11/10 00:17:40;;;;;;;0.30;0.10;;;;;;;;;;348639;28;20826;-32
2021/11/10 00:17:51;;;;;;;0.20;0.10;;;;;;;;;;347770;28;44629;-33
2021/11/10 00:18:02;;;;;;;0.10;0.05;;;;;;;;;;347253;28;21277;-35
2021/11/10 00:18:14;;;;;;;0.10;0.10;;;;;;;;;;348791;28;15676;-36
2021/11/10 00:18:25;;;;;;;0.10;0.10;;;;;;;;;;347827;28;45225;-33
2021/11/10 00:18:37;;;;;;;0.20;0.10;;;;;;;;;;349019;28;20865;-37
2021/11/10 00:18:51;;;;;;;0.10;0.10;;;;;;;;;;349207;28;44219;-35
2021/11/10 00:19:03;;;;;;;0.10;0.10;;;;;;;;;;347481;28;91109;-39
2021/11/10 00:19:14;;;;;;;0.20;0.08;;;;;;;;;;349267;28;44770;-39
2021/11/10 00:19:25;;;;;;;0.20;0.10;;;;;;;;;;349112;28;45282;-39
2021/11/10 00:19:36;;;;;;;0.10;0.00;;;;;;;;;;349911;28;21583;-38
2021/11/10 00:19:47;;;;;;;0.10;0.10;;;;;;;;;;350484;28;7298;-37
2021/11/10 00:19:59;;;;;;;0.10;0.10;;;;;;;;;;349303;28;21218;-36
2021/11/10 00:20:11;;;;;;;0.10;0.10;;;;;;;;;;347231;28;45373;-38
2021/11/10 00:20:22;;;;;;;0.10;0.10;;;;;;;;;;347782;28;44725;-39
2021/11/10 00:20:33;;;;;;;0.10;0.08;;;;;;;;;;348626;28;44042;-40
2021/11/10 00:20:46;;;;;;;0.10;0.10;;;;;;;;;;350161;28;21138;-38
2021/11/10 00:20:57;;;;;;;0.03;0.03;;;;;;;;;;349139;28;45154;-39
2021/11/10 00:21:08;;;;;;;0.10;0.08;;;;;;;;;;349212;28;45050;-38
2021/11/10 00:21:20;;;;;;;0.13;0.10;;;;;;;;;;349972;28;20836;-36
2021/11/10 00:21:31;;;;;;;0.20;0.10;;;;;;;;;;347797;28;45397;-38
2021/11/10 00:21:42;;;;;;;0.20;0.10;;;;;;;;;;348617;28;21151;-39
2021/11/10 00:21:54;;;;;;;0.20;0.10;;;;;;;;;;348564;28;21130;-39
2021/11/10 00:22:05;;;;;;;0.20;0.10;;;;;;;;;;349034;28;21199;-36
2021/11/10 00:22:16;;;;;;;0.03;0.03;;;;;;;;;;349929;28;21014;-36
2021/11/10 00:22:27;;;;;;;0.10;0.10;;;;;;;;;;349844;28;21331;-39
2021/11/10 00:22:38;;;;;;;0.10;0.10;;;;;;;;;;350026;28;20563;-38
2021/11/10 00:22:50;;;;;;;0.15;0.10;;;;;;;;;;348043;28;44711;-40
2021/11/10 00:23:01;;;;;;;0.10;0.08;;;;;;;;;;349898;28;21545;-39
2021/11/10 00:23:13;;;;;;;0.00;0.00;;;;;;;;;;350058;28;21089;-39
2021/11/10 00:23:24;;;;;;;0.10;0.10;;;;;;;;;;349365;28;44789;-40
2021/11/10 00:23:35;;;;;;;0.10;0.10;;;;;;;;;;351427;28;21190;-38
2021/11/10 00:23:46;;;;;;;0.00;0.00;;;;;;;;;;351366;28;21007;-38
2021/11/10 00:23:58;;;;;;;0.10;0.05;;;;;;;;;;351369;28;20776;-35
2021/11/10 00:24:09;;;;;;;0.10;0.05;;;;;;;;;;350422;28;45286;-38
2021/11/10 00:24:20;;;;;;;0.10;0.10;;;;;;;;;;350038;28;20880;-39
2021/11/10 00:24:31;;;;;;;0.20;0.10;;;;;;;;;;349908;28;21074;-39
2021/11/10 00:24:42;;;;;;;0.30;0.13;;;;;;;;;;350134;28;21032;-36
2021/11/10 00:24:53;;;;;;;0.27;0.10;;;;;;;;;;350585;28;44493;-40
2021/11/10 00:25:05;;;;;;;0.13;0.10;;;;;;;;;;350596;28;44910;-39
2021/11/10 00:25:16;;;;;;;0.13;0.10;;;;;;;;;;350579;28;45471;-37
2021/11/10 00:25:27;;;;;;;0.10;0.10;;;;;;;;;;351450;28;20882;-35
2021/11/10 00:25:39;;;;;;;0.10;0.10;;;;;;;;;;351382;28;21054;-33
2021/11/10 00:25:50;;;;;;;0.10;0.10;;;;;;;;;;351348;28;20865;-33
2021/11/10 00:26:01;;;;;;;0.10;0.08;;;;;;;;;;350478;28;45257;-34
2021/11/10 00:26:13;;;;;;;0.10;0.00;;;;;;;;;;351760;28;20900;-34
2021/11/10 00:26:24;;;;;;;0.00;0.00;;;;;;;;;;352814;28;21101;-37
2021/11/10 00:26:35;;;;;;;0.10;0.10;;;;;;;;;;352888;28;21358;-33
2021/11/10 00:26:46;;;;;;;0.10;0.10;;;;;;;;;;352091;28;44899;-35
2021/11/10 00:26:58;;;;;;;0.10;0.10;;;;;;;;;;352929;28;21046;-36
2021/11/10 00:27:09;;;;;;;0.15;0.05;;;;;;;;;;352936;28;21552;-35
2021/11/10 00:27:21;;;;;;;0.10;0.10;;;;;;;;;;352935;28;21104;-36
2021/11/10 00:27:32;;;;;;;0.13;0.10;;;;;;;;;;351937;28;44185;-37
2021/11/10 00:27:44;;;;;;;0.10;0.10;;;;;;;;;;350581;28;45001;-35
2021/11/10 00:27:55;;;;;;;0.20;0.00;;;;;;;;;;351433;28;20792;-32
2021/11/10 00:28:06;;;;;;;0.25;0.10;;;;;;;;;;351331;28;21083;-38
2021/11/10 00:28:18;;;;;;;0.28;0.10;;;;;;;;;;350615;28;45311;-34
2021/11/10 00:28:29;;;;;;;0.20;0.10;;;;;;;;;;351417;28;21043;-34
2021/11/10 00:28:40;;;;;;;0.50;0.10;;;;;;;;;;351315;28;20985;-33
2021/11/10 00:28:52;;;;;;;0.40;0.10;;;;;;;;;;350597;28;45286;-35
2021/11/10 00:29:04;;;;;;;0.40;0.10;;;;;;;;;;349248;28;45180;-36
2021/11/10 00:29:17;;;;;;;0.10;0.10;;;;;;;;;;346586;28;114506;-32
2021/11/10 00:29:29;;;;;;;0.10;0.10;;;;;;;;;;347779;28;44901;-32
2021/11/10 00:29:40;;;;;;;0.10;0.10;;;;;;;;;;346069;28;21663;-33
2021/11/10 00:29:51;;;;;;;0.00;0.00;;;;;;;;;;347165;28;21149;-35
2021/11/10 00:30:03;;;;;;;0.00;0.00;;;;;;;;;;347266;28;21241;-32
2021/11/10 00:30:14;;;;;;;0.00;0.00;;;;;;;;;;346444;28;44333;-32
2021/11/10 00:30:26;;;;;;;0.10;0.10;;;;;;;;;;347204;28;21014;-33
2021/11/10 00:30:37;;;;;;;0.10;0.10;;;;;;;;;;346470;28;44840;-34
2021/11/10 00:30:48;;;;;;;0.10;0.10;;;;;;;;;;347241;28;20959;-34
2021/11/10 00:31:00;;;;;;;0.17;0.17;;;;;;;;;;346987;28;44987;-33
2021/11/10 00:31:11;;;;;;;0.60;0.20;;;;;;;;;;348533;28;20995;-34
2021/11/10 00:31:22;;;;;;;0.60;0.20;;;;;;;;;;348973;28;20887;-38
2021/11/10 00:31:34;;;;;;;0.60;0.10;;;;;;;;;;350250;28;21516;-35
2021/11/10 00:31:45;;;;;;;0.20;0.10;;;;;;;;;;350578;28;45425;-33
2021/11/10 00:31:56;;;;;;;0.10;0.10;;;;;;;;;;350184;28;20876;-33
2021/11/10 00:32:07;;;;;;;0.10;0.10;;;;;;;;;;351299;28;21085;-33
2021/11/10 00:32:19;;;;;;;0.20;0.10;;;;;;;;;;347823;28;45365;-34
2021/11/10 00:32:31;;;;;;;0.30;0.10;;;;;;;;;;348554;28;21432;-36
2021/11/10 00:32:42;;;;;;;0.38;0.10;;;;;;;;;;348400;28;21158;-39
2021/11/10 00:32:53;;;;;;;0.20;0.10;;;;;;;;;;347726;28;45230;-36
2021/11/10 00:33:06;;;;;;;0.10;0.03;;;;;;;;;;347769;28;45211;-34
2021/11/10 00:33:17;;;;;;;0.10;0.08;;;;;;;;;;347825;28;45100;-33
2021/11/10 00:33:28;;;;;;;0.10;0.10;;;;;;;;;;348528;28;20959;-35
2021/11/10 00:33:39;;;;;;;0.10;0.10;;;;;;;;;;348596;28;21070;-34
2021/11/10 00:33:50;;;;;;;0.00;0.00;;;;;;;;;;349092;28;20879;-35
2021/11/10 00:34:01;;;;;;;0.00;0.00;;;;;;;;;;349907;28;21130;-34
2021/11/10 00:34:12;;;;;;;0.10;0.10;;;;;;;;;;350725;28;1104;-34
2021/11/10 00:34:23;;;;;;;0.10;0.10;;;;;;;;;;350532;28;20726;-37
2021/11/10 00:34:36;;;;;;;0.43;0.10;;;;;;;;;;349653;28;68141;-34
2021/11/10 00:34:47;;;;;;;0.93;0.10;;;;;;;;;;349992;28;21232;-35
2021/11/10 00:34:58;;;;;;;1.10;0.10;;;;;;;;;;349886;28;20974;-37
2021/11/10 00:35:09;;;;;;;0.50;0.10;;;;;;;;;;350273;28;21560;-33
2021/11/10 00:35:21;;;;;;;0.28;0.10;;;;;;;;;;351403;28;20944;-37
2021/11/10 00:35:32;;;;;;;0.10;0.10;;;;;;;;;;350538;28;44956;-36
2021/11/10 00:35:43;;;;;;;0.10;0.10;;;;;;;;;;351394;28;20979;-35
2021/11/10 00:35:54;;;;;;;0.20;0.10;;;;;;;;;;351360;28;21089;-32
2021/11/10 00:36:05;;;;;;;0.20;0.10;;;;;;;;;;351152;28;21522;-34
2021/11/10 00:36:17;;;;;;;0.20;0.10;;;;;;;;;;351412;28;21072;-38
2021/11/10 00:36:29;;;;;;;0.10;0.10;;;;;;;;;;348341;28;67756;-32
2021/11/10 00:36:41;;;;;;;0.20;0.03;;;;;;;;;;348137;28;45293;-36
2021/11/10 00:36:52;;;;;;;0.25;0.10;;;;;;;;;;348596;28;21458;-35
2021/11/10 00:37:03;;;;;;;0.20;0.10;;;;;;;;;;348538;28;21007;-34
2021/11/10 00:37:15;;;;;;;0.20;0.10;;;;;;;;;;348632;28;21089;-35
2021/11/10 00:37:26;;;;;;;0.20;0.10;;;;;;;;;;347804;28;45208;-35
2021/11/10 00:37:37;;;;;;;0.10;0.10;;;;;;;;;;345861;28;21992;-34
2021/11/10 00:37:48;;;;;;;0.10;0.10;;;;;;;;;;346364;28;1415;-39
2021/11/10 00:38:02;;;;;;;0.10;0.10;;;;;;;;;;343483;28;90975;-35
2021/11/10 00:38:13;;;;;;;0.10;0.00;;;;;;;;;;345857;28;20654;-37
2021/11/10 00:38:24;;;;;;;0.08;0.05;;;;;;;;;;346305;28;21491;-36
2021/11/10 00:38:37;;;;;;;0.10;0.10;;;;;;;;;;347648;28;21467;-35
2021/11/10 00:38:48;;;;;;;0.28;0.10;;;;;;;;;;348454;28;45383;-35
2021/11/10 00:38:59;;;;;;;0.20;0.10;;;;;;;;;;348554;28;21613;-38
2021/11/10 00:39:10;;;;;;;0.10;0.10;;;;;;;;;;347781;28;45544;-38
2021/11/10 00:39:21;;;;;;;0.00;0.00;;;;;;;;;;348537;28;21074;-32
2021/11/10 00:39:32;;;;;;;0.10;0.10;;;;;;;;;;348403;28;20480;-39
2021/11/10 00:39:44;;;;;;;0.10;0.10;;;;;;;;;;349191;28;45195;-37
2021/11/10 00:39:55;;;;;;;0.20;0.10;;;;;;;;;;350001;28;20871;-34
2021/11/10 00:40:07;;;;;;;0.10;0.00;;;;;;;;;;349918;28;21480;-33
2021/11/10 00:40:19;;;;;;;0.10;0.08;;;;;;;;;;347863;28;44878;-34
2021/11/10 00:40:31;;;;;;;0.20;0.10;;;;;;;;;;347803;28;45345;-34
2021/11/10 00:40:42;;;;;;;0.13;0.08;;;;;;;;;;348233;28;21458;-32
2021/11/10 00:40:53;;;;;;;0.00;0.00;;;;;;;;;;347434;28;21060;-35
2021/11/10 00:41:04;;;;;;;0.00;0.00;;;;;;;;;;347836;28;44784;-35
2021/11/10 00:41:16;;;;;;;0.10;0.10;;;;;;;;;;348393;28;21329;-38
2021/11/10 00:41:27;;;;;;;0.30;0.03;;;;;;;;;;348602;28;20841;-33
2021/11/10 00:41:38;;;;;;;0.40;0.10;;;;;;;;;;348519;28;20714;-35
2021/11/10 00:41:49;;;;;;;0.40;0.10;;;;;;;;;;348630;28;20917;-37
2021/11/10 00:42:00;;;;;;;0.10;0.10;;;;;;;;;;349052;28;16959;-32
2021/11/10 00:42:11;;;;;;;0.00;0.00;;;;;;;;;;348784;28;21221;-33
2021/11/10 00:42:23;;;;;;;0.20;0.00;;;;;;;;;;349221;28;44905;-33
2021/11/10 00:42:34;;;;;;;0.30;0.10;;;;;;;;;;349925;28;21259;-33
2021/11/10 00:42:45;;;;;;;0.13;0.10;;;;;;;;;;350109;28;20846;-35
2021/11/10 00:42:56;;;;;;;0.13;0.10;;;;;;;;;;350426;28;44801;-38
2021/11/10 00:43:08;;;;;;;0.10;0.03;;;;;;;;;;351340;28;21197;-33
2021/11/10 00:43:19;;;;;;;0.10;0.10;;;;;;;;;;351362;28;21013;-32
2021/11/10 00:43:31;;;;;;;0.10;0.10;;;;;;;;;;350574;28;45175;-33
2021/11/10 00:43:42;;;;;;;0.10;0.10;;;;;;;;;;350132;28;44760;-38
2021/11/10 00:43:54;;;;;;;0.03;0.03;;;;;;;;;;351353;28;21627;-35
2021/11/10 00:44:05;;;;;;;0.10;0.00;;;;;;;;;;349989;28;20917;-34
2021/11/10 00:44:16;;;;;;;0.20;0.00;;;;;;;;;;349954;28;20934;-33
2021/11/10 00:44:42;;;;;;;0.10;0.10;;;;;;;;;;344120;28;136488;-32
2021/11/10 00:44:53;;;;;;;0.08;0.08;;;;;;;;;;349231;28;1453;-33
2021/11/10 00:45:06;;;;;;;0.17;0.10;;;;;;;;;;347263;28;21184;-34
2021/11/10 00:45:17;;;;;;;0.40;0.10;;;;;;;;;;345550;28;68200;-33
2021/11/10 00:45:28;;;;;;;0.32;0.10;;;;;;;;;;346809;28;20720;-37
2021/11/10 00:45:39;;;;;;;0.10;0.00;;;;;;;;;;347208;28;21521;-31
2021/11/10 00:45:50;;;;;;;0.03;0.00;;;;;;;;;;346470;28;44916;-33
2021/11/10 00:46:02;;;;;;;0.00;0.00;;;;;;;;;;347256;28;21313;-34
2021/11/10 00:46:13;;;;;;;0.00;0.00;;;;;;;;;;347035;28;20828;-34
2021/11/10 00:46:24;;;;;;;0.00;0.00;;;;;;;;;;347253;28;21564;-31
2021/11/10 00:46:35;;;;;;;0.10;0.00;;;;;;;;;;347240;28;21069;-37
2021/11/10 00:46:46;;;;;;;0.20;0.10;;;;;;;;;;347244;28;20968;-37
2021/11/10 00:46:57;;;;;;;0.17;0.10;;;;;;;;;;347457;28;21160;-33
2021/11/10 00:47:08;;;;;;;0.10;0.10;;;;;;;;;;348581;28;20876;-32
2021/11/10 00:47:19;;;;;;;0.10;0.10;;;;;;;;;;350043;28;21297;-34
2021/11/10 00:47:30;;;;;;;0.20;0.10;;;;;;;;;;350727;28;44800;-33
2021/11/10 00:47:42;;;;;;;0.20;0.10;;;;;;;;;;351471;28;21143;-34
2021/11/10 00:47:53;;;;;;;0.15;0.10;;;;;;;;;;351452;28;21429;-35
2021/11/10 00:48:05;;;;;;;0.20;0.10;;;;;;;;;;352652;28;20975;-35
2021/11/10 00:48:16;;;;;;;0.30;0.10;;;;;;;;;;352071;28;45394;-32
2021/11/10 00:48:28;;;;;;;0.30;0.10;;;;;;;;;;352918;28;21138;-32
2021/11/10 00:48:39;;;;;;;0.13;0.08;;;;;;;;;;350539;28;44394;-37
2021/11/10 00:48:50;;;;;;;0.10;0.10;;;;;;;;;;351400;28;21646;-34
2021/11/10 00:49:01;;;;;;;0.10;0.10;;;;;;;;;;351608;28;14112;-36
2021/11/10 00:49:12;;;;;;;0.00;0.00;;;;;;;;;;348679;28;21098;-36
2021/11/10 00:49:23;;;;;;;0.00;0.00;;;;;;;;;;348523;28;20911;-40
2021/11/10 00:49:34;;;;;;;0.10;0.00;;;;;;;;;;348497;28;20838;-32
2021/11/10 00:49:45;;;;;;;0.10;0.00;;;;;;;;;;348509;28;21322;-32
2021/11/10 00:49:57;;;;;;;0.10;0.00;;;;;;;;;;347749;28;44971;-34
2021/11/10 00:50:09;;;;;;;0.10;0.03;;;;;;;;;;347726;28;44972;-32
2021/11/10 00:50:20;;;;;;;0.10;0.10;;;;;;;;;;348526;28;21122;-35
2021/11/10 00:50:33;;;;;;;0.17;0.10;;;;;;;;;;348023;28;44821;-37
2021/11/10 00:50:44;;;;;;;0.20;0.10;;;;;;;;;;349186;28;45206;-35
2021/11/10 00:50:56;;;;;;;0.10;0.10;;;;;;;;;;349118;28;44747;-32
2021/11/10 00:51:08;;;;;;;0.00;0.00;;;;;;;;;;349110;28;45360;-32
2021/11/10 00:51:19;;;;;;;0.00;0.00;;;;;;;;;;351233;28;21288;-39
2021/11/10 00:51:30;;;;;;;0.10;0.10;;;;;;;;;;350011;28;20707;-33
2021/11/10 00:51:42;;;;;;;0.10;0.10;;;;;;;;;;349156;28;45318;-38
2021/11/10 00:51:53;;;;;;;0.10;0.10;;;;;;;;;;350736;28;21311;-35
2021/11/10 00:52:04;;;;;;;0.00;0.00;;;;;;;;;;351453;28;21007;-35
2021/11/10 00:52:15;;;;;;;0.10;0.00;;;;;;;;;;351439;28;21037;-36
2021/11/10 00:52:27;;;;;;;0.10;0.10;;;;;;;;;;351338;28;21059;-34
2021/11/10 00:52:38;;;;;;;0.10;0.10;;;;;;;;;;349231;28;44773;-35
2021/11/10 00:52:49;;;;;;;0.10;0.10;;;;;;;;;;349987;28;20950;-34
2021/11/10 00:53:00;;;;;;;0.00;0.00;;;;;;;;;;350076;28;21362;-33
2021/11/10 00:53:14;;;;;;;0.10;0.10;;;;;;;;;;346151;28;90728;-38
2021/11/10 00:53:25;;;;;;;0.10;0.10;;;;;;;;;;348567;28;21668;-35
2021/11/10 00:53:36;;;;;;;0.08;0.08;;;;;;;;;;348612;28;21140;-33
2021/11/10 00:53:48;;;;;;;0.10;0.08;;;;;;;;;;346421;28;44900;-33
2021/11/10 00:53:59;;;;;;;0.03;0.03;;;;;;;;;;347234;28;21303;-35
2021/11/10 00:54:10;;;;;;;0.10;0.10;;;;;;;;;;347196;28;21551;-33
2021/11/10 00:54:21;;;;;;;0.10;0.10;;;;;;;;;;347242;28;20631;-33
2021/11/10 00:54:32;;;;;;;0.10;0.05;;;;;;;;;;347628;28;21296;-34
2021/11/10 00:54:43;;;;;;;0.10;0.00;;;;;;;;;;348534;28;20764;-36
2021/11/10 00:54:54;;;;;;;0.17;0.00;;;;;;;;;;348705;28;18561;-35
2021/11/10 00:55:06;;;;;;;0.40;0.10;;;;;;;;;;347775;28;45319;-33
2021/11/10 00:55:18;;;;;;;0.30;0.03;;;;;;;;;;348422;28;21262;-36
2021/11/10 00:55:29;;;;;;;0.10;0.10;;;;;;;;;;347757;28;44764;-33
2021/11/10 00:55:41;;;;;;;0.10;0.10;;;;;;;;;;348785;28;20930;-38
2021/11/10 00:55:52;;;;;;;0.10;0.10;;;;;;;;;;349138;28;45137;-34
2021/11/10 00:56:04;;;;;;;0.10;0.10;;;;;;;;;;349978;28;20812;-33
2021/11/10 00:56:15;;;;;;;0.30;0.10;;;;;;;;;;346444;28;45003;-34
2021/11/10 00:56:26;;;;;;;0.10;0.03;;;;;;;;;;347246;28;21086;-34
2021/11/10 00:56:38;;;;;;;0.03;0.00;;;;;;;;;;345845;28;21628;-33
2021/11/10 00:56:49;;;;;;;0.00;0.00;;;;;;;;;;346617;28;1070;-33
2021/11/10 00:57:00;;;;;;;0.10;0.10;;;;;;;;;;346088;28;44964;-33
2021/11/10 00:57:11;;;;;;;0.10;0.10;;;;;;;;;;348555;28;21046;-33
2021/11/10 00:57:23;;;;;;;0.10;0.10;;;;;;;;;;345859;28;21007;-36
2021/11/10 00:57:34;;;;;;;0.20;0.10;;;;;;;;;;345032;28;45361;-34
2021/11/10 00:57:45;;;;;;;0.13;0.10;;;;;;;;;;344445;28;21204;-35
2021/11/10 00:57:57;;;;;;;0.20;0.10;;;;;;;;;;344539;28;20803;-34
2021/11/10 00:58:08;;;;;;;0.20;0.10;;;;;;;;;;345181;28;45199;-35
2021/11/10 00:58:20;;;;;;;0.15;0.10;;;;;;;;;;346459;28;44823;-38
2021/11/10 00:58:31;;;;;;;0.20;0.10;;;;;;;;;;347481;28;21185;-33
2021/11/10 00:58:43;;;;;;;0.17;0.08;;;;;;;;;;348509;28;20519;-36
2021/11/10 00:58:54;;;;;;;0.22;0.10;;;;;;;;;;348555;28;21582;-34
2021/11/10 00:59:05;;;;;;;0.20;0.10;;;;;;;;;;348512;28;21159;-35
2021/11/10 00:59:16;;;;;;;0.10;0.10;;;;;;;;;;346985;28;45194;-34
2021/11/10 00:59:28;;;;;;;0.10;0.10;;;;;;;;;;349873;28;21137;-32
2021/11/10 00:59:39;;;;;;;0.10;0.10;;;;;;;;;;348717;28;44951;-38
2021/11/10 00:59:50;;;;;;;0.20;0.10;;;;;;;;;;349995;28;20983;-36
2021/11/10 01:00:05;;;;;;;0.10;0.10;;;;;;;;;;349911;28;21269;-40
2021/11/10 01:00:18;;;;;;;0.17;0.10;;;;;;;;;;346769;28;113939;-33
2021/11/10 01:00:29;;;;;;;0.20;0.08;;;;;;;;;;346396;28;45095;-35
2021/11/10 01:00:40;;;;;;;0.20;0.10;;;;;;;;;;346345;28;45271;-32
2021/11/10 01:00:52;;;;;;;0.10;0.10;;;;;;;;;;347224;28;21472;-34
2021/11/10 01:01:03;;;;;;;0.13;0.10;;;;;;;;;;348184;28;20970;-36
2021/11/10 01:01:14;;;;;;;0.20;0.03;;;;;;;;;;347198;28;21131;-35
2021/11/10 01:01:25;;;;;;;0.20;0.10;;;;;;;;;;346385;28;44957;-32
2021/11/10 01:01:36;;;;;;;0.20;0.10;;;;;;;;;;345851;28;21086;-34
2021/11/10 01:01:47;;;;;;;0.10;0.10;;;;;;;;;;345854;28;21089;-33
2021/11/10 01:01:58;;;;;;;0.10;0.10;;;;;;;;;;345808;28;21575;-34
2021/11/10 01:02:10;;;;;;;0.10;0.10;;;;;;;;;;345694;28;21243;-36
2021/11/10 01:02:21;;;;;;;0.20;0.10;;;;;;;;;;346472;28;45056;-37
2021/11/10 01:02:33;;;;;;;0.20;0.10;;;;;;;;;;347158;28;20656;-36
2021/11/10 01:02:44;;;;;;;0.20;0.10;;;;;;;;;;347139;28;21148;-33
2021/11/10 01:02:56;;;;;;;0.10;0.00;;;;;;;;;;346418;28;45119;-33
2021/11/10 01:03:08;;;;;;;0.08;0.00;;;;;;;;;;347503;28;21250;-35
2021/11/10 01:03:20;;;;;;;0.10;0.10;;;;;;;;;;347775;28;45005;-34
2021/11/10 01:03:32;;;;;;;0.10;0.10;;;;;;;;;;347051;28;67623;-34
2021/11/10 01:03:43;;;;;;;0.00;0.00;;;;;;;;;;348617;28;21027;-36
2021/11/10 01:03:55;;;;;;;0.00;0.00;;;;;;;;;;350619;28;44781;-33
2021/11/10 01:04:06;;;;;;;0.10;0.10;;;;;;;;;;350000;28;20992;-34
2021/11/10 01:04:17;;;;;;;0.10;0.10;;;;;;;;;;349921;28;21393;-33
2021/11/10 01:04:30;;;;;;;0.15;0.10;;;;;;;;;;346965;28;68005;-34
2021/11/10 01:04:41;;;;;;;0.10;0.00;;;;;;;;;;347141;28;21165;-35
2021/11/10 01:04:52;;;;;;;0.00;0.00;;;;;;;;;;346390;28;44853;-36
2021/11/10 01:05:04;;;;;;;0.00;0.00;;;;;;;;;;347248;28;21226;-33
2021/11/10 01:05:16;;;;;;;0.10;0.00;;;;;;;;;;346440;28;44900;-33
2021/11/10 01:05:28;;;;;;;0.10;0.10;;;;;;;;;;346135;28;45158;-33
2021/11/10 01:05:40;;;;;;;0.17;0.10;;;;;;;;;;345889;28;20713;-35
2021/11/10 01:05:51;;;;;;;0.20;0.10;;;;;;;;;;346423;28;45531;-36
2021/11/10 01:06:02;;;;;;;0.10;0.10;;;;;;;;;;347155;28;20929;-39
2021/11/10 01:06:13;;;;;;;0.10;0.10;;;;;;;;;;350106;28;17106;-34
2021/11/10 01:06:24;;;;;;;0.20;0.00;;;;;;;;;;349208;28;44951;-33
2021/11/10 01:06:35;;;;;;;0.32;0.08;;;;;;;;;;349942;28;21438;-34
2021/11/10 01:06:47;;;;;;;0.43;0.10;;;;;;;;;;350439;28;21139;-33
2021/11/10 01:06:58;;;;;;;0.30;0.10;;;;;;;;;;349972;28;20932;-36
2021/11/10 01:07:10;;;;;;;0.10;0.10;;;;;;;;;;348487;28;45082;-35
2021/11/10 01:07:21;;;;;;;0.10;0.10;;;;;;;;;;348578;28;21093;-39
2021/11/10 01:07:32;;;;;;;0.10;0.10;;;;;;;;;;347263;28;21230;-34
2021/11/10 01:07:43;;;;;;;0.05;0.05;;;;;;;;;;347203;28;21166;-34
2021/11/10 01:07:57;;;;;;;0.10;0.10;;;;;;;;;;346378;28;44965;-36
2021/11/10 01:08:09;;;;;;;0.00;0.00;;;;;;;;;;344066;28;91122;-35
2021/11/10 01:08:21;;;;;;;0.00;0.00;;;;;;;;;;347205;28;20949;-34
2021/11/10 01:08:32;;;;;;;0.10;0.00;;;;;;;;;;346432;28;45260;-35
2021/11/10 01:08:43;;;;;;;0.10;0.00;;;;;;;;;;347214;28;20895;-38
2021/11/10 01:08:55;;;;;;;0.00;0.00;;;;;;;;;;347848;28;45163;-36
2021/11/10 01:09:06;;;;;;;0.00;0.00;;;;;;;;;;350005;28;20922;-39
2021/11/10 01:09:18;;;;;;;0.10;0.00;;;;;;;;;;350600;28;45018;-33
2021/11/10 01:09:38;;;;;;;0.20;0.08;;;;;;;;;;350489;28;44631;-34
2021/11/10 01:09:54;;;;;;;0.00;0.00;;;;;;;;;;347354;28;136657;-35
2021/11/10 01:10:06;;;;;;;0.05;0.00;;;;;;;;;;347369;28;137039;-32
2021/11/10 01:10:17;;;;;;;0.10;0.00;;;;;;;;;;350595;28;44139;-32
2021/11/10 01:10:28;;;;;;;0.10;0.10;;;;;;;;;;351358;28;20764;-34